sensor_id;sensor_type;location;lat;lon;timestamp;temperature;humidity
61641;HTU21D;62201;49.966;8.342;2022-09-29T00:00:09;8.11;99.19
61641;HTU21D;62201;49.966;8.342;2022-09-29T00:02:35;8.13;99.19
61641;HTU21D;62201;49.966;8.342;2022-09-29T00:05:00;8.13;99.04
61641;HTU21D;62201;49.966;8.342;2022-09-29T00:07:28;8.15;99.21
61641;HTU21D;62201;49.966;8.342;2022-09-29T00:09:53;8.17;99.21
61641;HTU21D;62201;49.966;8.342;2022-09-29T00:12:19;8.17;99.31
61641;HTU21D;62201;49.966;8.342;2022-09-29T00:14:44;8.20;99.58
61641;HTU21D;62201;49.966;8.342;2022-09-29T00:17:10;8.21;99.32
61641;HTU21D;62201;49.966;8.342;2022-09-29T00:19:35;8.21;99.16
61641;HTU21D;62201;49.966;8.342;2022-09-29T00:22:01;8.23;98.84
61641;HTU21D;62201;49.966;8.342;2022-09-29T00:24:26;8.19;98.49
61641;HTU21D;62201;49.966;8.342;2022-09-29T00:26:52;8.24;98.66
61641;HTU21D;62201;49.966;8.342;2022-09-29T00:29:17;8.23;98.09
61641;HTU21D;62201;49.966;8.342;2022-09-29T00:31:42;8.21;97.86
61641;HTU21D;62201;49.966;8.342;2022-09-29T00:34:08;8.22;97.68
61641;HTU21D;62201;49.966;8.342;2022-09-29T00:36:33;8.19;97.31
61641;HTU21D;62201;49.966;8.342;2022-09-29T00:38:59;8.16;96.90
61641;HTU21D;62201;49.966;8.342;2022-09-29T00:41:32;8.12;96.80
61641;HTU21D;62201;49.966;8.342;2022-09-29T00:49:30;7.83;96.97
61641;HTU21D;62201;49.966;8.342;2022-09-29T00:52:13;7.74;97.43
61641;HTU21D;62201;49.966;8.342;2022-09-29T00:54:47;7.62;97.39
61641;HTU21D;62201;49.966;8.342;2022-09-29T00:57:17;7.56;97.78
61641;HTU21D;62201;49.966;8.342;2022-09-29T00:59:55;7.55;98.46
61641;HTU21D;62201;49.966;8.342;2022-09-29T01:02:23;7.50;98.57
61641;HTU21D;62201;49.966;8.342;2022-09-29T01:04:50;7.42;98.36
61641;HTU21D;62201;49.966;8.342;2022-09-29T01:07:18;7.33;98.26
61641;HTU21D;62201;49.966;8.342;2022-09-29T01:09:44;7.24;98.20
61641;HTU21D;62201;49.966;8.342;2022-09-29T01:12:10;7.17;98.38
61641;HTU21D;62201;49.966;8.342;2022-09-29T01:14:36;7.10;98.50
61641;HTU21D;62201;49.966;8.342;2022-09-29T01:17:03;7.11;99.03
61641;HTU21D;62201;49.966;8.342;2022-09-29T01:25:28;7.05;99.21
61641;HTU21D;62201;49.966;8.342;2022-09-29T01:34:24;6.95;99.17
61641;HTU21D;62201;49.966;8.342;2022-09-29T01:36:58;6.90;99.38
61641;HTU21D;62201;49.966;8.342;2022-09-29T01:39:47;6.90;99.58
61641;HTU21D;62201;49.966;8.342;2022-09-29T01:42:17;6.84;99.41
61641;HTU21D;62201;49.966;8.342;2022-09-29T01:45:01;6.74;99.29
61641;HTU21D;62201;49.966;8.342;2022-09-29T01:47:37;6.72;99.53
61641;HTU21D;62201;49.966;8.342;2022-09-29T01:50:15;6.73;99.95
61641;HTU21D;62201;49.966;8.342;2022-09-29T01:52:45;6.68;99.86
61641;HTU21D;62201;49.966;8.342;2022-09-29T01:55:16;6.63;100.08
61641;HTU21D;62201;49.966;8.342;2022-09-29T01:58:06;6.65;100.48
61641;HTU21D;62201;49.966;8.342;2022-09-29T02:00:38;6.60;100.23
61641;HTU21D;62201;49.966;8.342;2022-09-29T02:06:14;6.66;100.87
61641;HTU21D;62201;49.966;8.342;2022-09-29T02:08:48;6.68;101.15
61641;HTU21D;62201;49.966;8.342;2022-09-29T02:11:16;6.65;100.83
61641;HTU21D;62201;49.966;8.342;2022-09-29T02:13:53;6.67;101.18
61641;HTU21D;62201;49.966;8.342;2022-09-29T02:16:42;6.80;101.66
61641;HTU21D;62201;49.966;8.342;2022-09-29T02:19:19;6.79;101.18
61641;HTU21D;62201;49.966;8.342;2022-09-29T02:21:45;6.79;100.96
61641;HTU21D;62201;49.966;8.342;2022-09-29T02:24:11;6.78;100.64
61641;HTU21D;62201;49.966;8.342;2022-09-29T02:26:37;6.75;100.59
61641;HTU21D;62201;49.966;8.342;2022-09-29T02:29:04;6.79;101.06
61641;HTU21D;62201;49.966;8.342;2022-09-29T02:31:31;6.82;100.78
61641;HTU21D;62201;49.966;8.342;2022-09-29T02:33:58;6.81;100.38
61641;HTU21D;62201;49.966;8.342;2022-09-29T02:36:38;6.74;100.09
61641;HTU21D;62201;49.966;8.342;2022-09-29T02:39:52;6.70;100.01
61641;HTU21D;62201;49.966;8.342;2022-09-29T02:42:18;6.70;100.34
61641;HTU21D;62201;49.966;8.342;2022-09-29T02:45:09;6.65;100.21
61641;HTU21D;62201;49.966;8.342;2022-09-29T02:53:33;6.66;100.17
61641;HTU21D;62201;49.966;8.342;2022-09-29T02:56:19;6.55;99.86
61641;HTU21D;62201;49.966;8.342;2022-09-29T02:59:41;6.50;100.00
61641;HTU21D;62201;49.966;8.342;2022-09-29T03:01:56;6.44;100.00
61641;HTU21D;62201;49.966;8.342;2022-09-29T03:04:24;6.45;100.45
61641;HTU21D;62201;49.966;8.342;2022-09-29T03:06:50;6.51;100.61
61641;HTU21D;62201;49.966;8.342;2022-09-29T03:09:17;6.45;100.35
61641;HTU21D;62201;49.966;8.342;2022-09-29T03:11:42;6.38;100.18
61641;HTU21D;62201;49.966;8.342;2022-09-29T03:14:08;6.41;100.40
61641;HTU21D;62201;49.966;8.342;2022-09-29T03:16:34;6.42;100.54
61641;HTU21D;62201;49.966;8.342;2022-09-29T03:19:01;6.45;100.61
61641;HTU21D;62201;49.966;8.342;2022-09-29T03:21:27;6.45;100.51
61641;HTU21D;62201;49.966;8.342;2022-09-29T03:23:53;6.51;100.70
61641;HTU21D;62201;49.966;8.342;2022-09-29T03:26:19;6.57;100.87
61641;HTU21D;62201;49.966;8.342;2022-09-29T03:28:44;6.60;100.73
61641;HTU21D;62201;49.966;8.342;2022-09-29T03:31:10;6.63;100.58
61641;HTU21D;62201;49.966;8.342;2022-09-29T03:33:36;6.70;100.29
61641;HTU21D;62201;49.966;8.342;2022-09-29T03:36:03;6.72;99.78
61641;HTU21D;62201;49.966;8.342;2022-09-29T03:38:30;6.72;99.73
61641;HTU21D;62201;49.966;8.342;2022-09-29T03:40:56;6.66;99.38
61641;HTU21D;62201;49.966;8.342;2022-09-29T03:43:21;6.59;99.23
61641;HTU21D;62201;49.966;8.342;2022-09-29T03:45:48;6.61;99.70
61641;HTU21D;62201;49.966;8.342;2022-09-29T03:48:14;6.63;99.77
61641;HTU21D;62201;49.966;8.342;2022-09-29T03:50:39;6.60;99.80
61641;HTU21D;62201;49.966;8.342;2022-09-29T03:53:04;6.55;99.61
61641;HTU21D;62201;49.966;8.342;2022-09-29T03:55:30;6.51;99.65
61641;HTU21D;62201;49.966;8.342;2022-09-29T03:57:55;6.48;99.74
61641;HTU21D;62201;49.966;8.342;2022-09-29T04:00:21;6.43;99.77
61641;HTU21D;62201;49.966;8.342;2022-09-29T04:02:46;6.41;99.91
61641;HTU21D;62201;49.966;8.342;2022-09-29T04:05:12;6.37;99.87
61641;HTU21D;62201;49.966;8.342;2022-09-29T04:07:37;6.30;99.77
61641;HTU21D;62201;49.966;8.342;2022-09-29T04:10:03;6.23;99.74
61641;HTU21D;62201;49.966;8.342;2022-09-29T04:12:29;6.20;100.01
61641;HTU21D;62201;49.966;8.342;2022-09-29T04:14:54;6.28;100.85
61641;HTU21D;62201;49.966;8.342;2022-09-29T04:17:19;6.29;100.67
61641;HTU21D;62201;49.966;8.342;2022-09-29T04:19:46;6.33;100.86
61641;HTU21D;62201;49.966;8.342;2022-09-29T04:22:14;6.34;100.80
61641;HTU21D;62201;49.966;8.342;2022-09-29T04:24:41;6.37;100.77
61641;HTU21D;62201;49.966;8.342;2022-09-29T04:27:06;6.41;100.78
61641;HTU21D;62201;49.966;8.342;2022-09-29T04:29:31;6.40;100.47
61641;HTU21D;62201;49.966;8.342;2022-09-29T04:31:57;6.33;100.15
61641;HTU21D;62201;49.966;8.342;2022-09-29T04:34:22;6.25;99.90
61641;HTU21D;62201;49.966;8.342;2022-09-29T04:36:48;6.16;99.83
61641;HTU21D;62201;49.966;8.342;2022-09-29T04:39:13;6.22;100.49
61641;HTU21D;62201;49.966;8.342;2022-09-29T04:41:38;6.22;100.49
61641;HTU21D;62201;49.966;8.342;2022-09-29T04:44:05;6.21;100.47
61641;HTU21D;62201;49.966;8.342;2022-09-29T04:46:31;6.24;100.61
61641;HTU21D;62201;49.966;8.342;2022-09-29T04:48:56;6.24;100.57
61641;HTU21D;62201;49.966;8.342;2022-09-29T04:51:21;6.22;100.54
61641;HTU21D;62201;49.966;8.342;2022-09-29T04:53:47;6.12;100.20
61641;HTU21D;62201;49.966;8.342;2022-09-29T04:56:13;6.02;100.06
61641;HTU21D;62201;49.966;8.342;2022-09-29T04:58:38;6.07;100.91
61641;HTU21D;62201;49.966;8.342;2022-09-29T05:01:08;6.02;100.70
61641;HTU21D;62201;49.966;8.342;2022-09-29T05:03:34;5.92;100.41
61641;HTU21D;62201;49.966;8.342;2022-09-29T05:05:59;5.89;100.64
61641;HTU21D;62201;49.966;8.342;2022-09-29T05:08:25;5.84;100.73
61641;HTU21D;62201;49.966;8.342;2022-09-29T05:10:50;5.91;101.15
61641;HTU21D;62201;49.966;8.342;2022-09-29T05:13:16;5.95;101.38
61641;HTU21D;62201;49.966;8.342;2022-09-29T05:15:41;5.94;101.28
61641;HTU21D;62201;49.966;8.342;2022-09-29T05:18:07;5.99;101.54
61641;HTU21D;62201;49.966;8.342;2022-09-29T05:20:32;5.98;101.20
61641;HTU21D;62201;49.966;8.342;2022-09-29T05:22:57;5.94;100.99
61641;HTU21D;62201;49.966;8.342;2022-09-29T05:25:25;5.91;100.89
61641;HTU21D;62201;49.966;8.342;2022-09-29T05:27:51;5.96;101.20
61641;HTU21D;62201;49.966;8.342;2022-09-29T05:30:17;5.96;100.97
61641;HTU21D;62201;49.966;8.342;2022-09-29T05:32:42;6.01;101.01
61641;HTU21D;62201;49.966;8.342;2022-09-29T05:35:09;6.21;101.21
61641;HTU21D;62201;49.966;8.342;2022-09-29T05:37:34;6.34;100.89
61641;HTU21D;62201;49.966;8.342;2022-09-29T05:40:00;6.44;100.63
61641;HTU21D;62201;49.966;8.342;2022-09-29T05:42:26;6.50;100.18
61641;HTU21D;62201;49.966;8.342;2022-09-29T05:44:52;6.55;99.88
61641;HTU21D;62201;49.966;8.342;2022-09-29T05:47:17;6.58;99.54
61641;HTU21D;62201;49.966;8.342;2022-09-29T05:49:43;6.57;99.34
61641;HTU21D;62201;49.966;8.342;2022-09-29T05:52:08;6.59;99.16
61641;HTU21D;62201;49.966;8.342;2022-09-29T05:54:33;6.61;99.09
61641;HTU21D;62201;49.966;8.342;2022-09-29T05:56:59;6.63;98.78
61641;HTU21D;62201;49.966;8.342;2022-09-29T05:59:24;6.61;98.63
61641;HTU21D;62201;49.966;8.342;2022-09-29T06:01:50;6.67;98.91
61641;HTU21D;62201;49.966;8.342;2022-09-29T06:04:15;6.75;99.10
61641;HTU21D;62201;49.966;8.342;2022-09-29T06:06:41;6.81;99.09
61641;HTU21D;62201;49.966;8.342;2022-09-29T06:09:07;6.86;98.91
61641;HTU21D;62201;49.966;8.342;2022-09-29T06:11:33;6.89;98.87
61641;HTU21D;62201;49.966;8.342;2022-09-29T06:14:00;6.96;98.92
61641;HTU21D;62201;49.966;8.342;2022-09-29T06:16:29;7.02;98.64
61641;HTU21D;62201;49.966;8.342;2022-09-29T06:18:55;7.09;98.50
61641;HTU21D;62201;49.966;8.342;2022-09-29T06:21:26;7.10;98.35
61641;HTU21D;62201;49.966;8.342;2022-09-29T06:23:56;7.18;98.55
61641;HTU21D;62201;49.966;8.342;2022-09-29T06:26:22;7.27;98.60
61641;HTU21D;62201;49.966;8.342;2022-09-29T06:28:48;7.27;98.56
61641;HTU21D;62201;49.966;8.342;2022-09-29T06:31:16;7.34;99.20
61641;HTU21D;62201;49.966;8.342;2022-09-29T06:33:42;7.35;99.06
61641;HTU21D;62201;49.966;8.342;2022-09-29T06:36:22;7.34;98.99
61641;HTU21D;62201;49.966;8.342;2022-09-29T06:39:10;7.42;99.50
61641;HTU21D;62201;49.966;8.342;2022-09-29T06:41:35;7.54;99.64
61641;HTU21D;62201;49.966;8.342;2022-09-29T06:44:01;7.65;99.58
61641;HTU21D;62201;49.966;8.342;2022-09-29T06:46:27;7.63;98.87
61641;HTU21D;62201;49.966;8.342;2022-09-29T06:48:53;7.63;98.74
61641;HTU21D;62201;49.966;8.342;2022-09-29T06:51:20;7.61;98.94
61641;HTU21D;62201;49.966;8.342;2022-09-29T06:53:47;7.63;99.03
61641;HTU21D;62201;49.966;8.342;2022-09-29T06:56:13;7.72;99.01
61641;HTU21D;62201;49.966;8.342;2022-09-29T06:58:39;7.75;98.74
61641;HTU21D;62201;49.966;8.342;2022-09-29T07:01:05;7.68;98.36
61641;HTU21D;62201;49.966;8.342;2022-09-29T07:03:31;7.72;98.70
61641;HTU21D;62201;49.966;8.342;2022-09-29T07:05:56;7.79;98.88
61641;HTU21D;62201;49.966;8.342;2022-09-29T07:08:25;7.78;98.77
61641;HTU21D;62201;49.966;8.342;2022-09-29T07:10:51;7.84;98.86
61641;HTU21D;62201;49.966;8.342;2022-09-29T07:13:16;7.83;98.38
61641;HTU21D;62201;49.966;8.342;2022-09-29T07:15:42;7.74;98.32
61641;HTU21D;62201;49.966;8.342;2022-09-29T07:18:07;7.70;98.69
61641;HTU21D;62201;49.966;8.342;2022-09-29T07:20:34;7.72;98.81
61641;HTU21D;62201;49.966;8.342;2022-09-29T07:22:59;7.75;98.53
61641;HTU21D;62201;49.966;8.342;2022-09-29T07:25:25;7.69;98.61
61641;HTU21D;62201;49.966;8.342;2022-09-29T07:27:50;7.68;99.03
61641;HTU21D;62201;49.966;8.342;2022-09-29T07:30:17;7.64;98.92
61641;HTU21D;62201;49.966;8.342;2022-09-29T07:32:43;7.75;99.38
61641;HTU21D;62201;49.966;8.342;2022-09-29T07:35:09;7.86;99.50
61641;HTU21D;62201;49.966;8.342;2022-09-29T07:37:34;7.90;98.55
61641;HTU21D;62201;49.966;8.342;2022-09-29T07:40:00;7.96;98.52
61641;HTU21D;62201;49.966;8.342;2022-09-29T07:42:26;8.04;98.60
61641;HTU21D;62201;49.966;8.342;2022-09-29T07:44:52;8.20;98.80
61641;HTU21D;62201;49.966;8.342;2022-09-29T07:47:18;8.39;98.39
61641;HTU21D;62201;49.966;8.342;2022-09-29T07:49:43;8.49;97.58
61641;HTU21D;62201;49.966;8.342;2022-09-29T07:52:09;8.42;97.25
61641;HTU21D;62201;49.966;8.342;2022-09-29T07:54:34;8.57;97.61
61641;HTU21D;62201;49.966;8.342;2022-09-29T07:57:00;8.59;96.98
61641;HTU21D;62201;49.966;8.342;2022-09-29T07:59:28;8.61;96.71
61641;HTU21D;62201;49.966;8.342;2022-09-29T08:01:54;8.37;96.78
61641;HTU21D;62201;49.966;8.342;2022-09-29T08:04:19;8.35;97.03
61641;HTU21D;62201;49.966;8.342;2022-09-29T08:06:45;8.27;97.09
61641;HTU21D;62201;49.966;8.342;2022-09-29T08:09:13;8.55;98.16
61641;HTU21D;62201;49.966;8.342;2022-09-29T08:11:48;8.60;96.68
61641;HTU21D;62201;49.966;8.342;2022-09-29T08:14:13;8.46;96.32
61641;HTU21D;62201;49.966;8.342;2022-09-29T08:16:39;8.59;96.80
61641;HTU21D;62201;49.966;8.342;2022-09-29T08:19:05;8.76;96.54
61641;HTU21D;62201;49.966;8.342;2022-09-29T08:21:30;8.81;95.39
61641;HTU21D;62201;49.966;8.342;2022-09-29T08:24:00;8.79;95.45
61641;HTU21D;62201;49.966;8.342;2022-09-29T08:26:26;8.87;95.74
61641;HTU21D;62201;49.966;8.342;2022-09-29T08:28:52;8.85;94.37
61641;HTU21D;62201;49.966;8.342;2022-09-29T08:31:19;8.93;94.40
61641;HTU21D;62201;49.966;8.342;2022-09-29T08:33:49;8.94;94.40
61641;HTU21D;62201;49.966;8.342;2022-09-29T08:36:16;8.77;94.28
61641;HTU21D;62201;49.966;8.342;2022-09-29T08:38:43;8.79;95.43
61641;HTU21D;62201;49.966;8.342;2022-09-29T08:46:46;8.67;94.53
61641;HTU21D;62201;49.966;8.342;2022-09-29T08:51:54;8.89;94.92
61641;HTU21D;62201;49.966;8.342;2022-09-29T08:54:23;8.88;94.44
61641;HTU21D;62201;49.966;8.342;2022-09-29T08:56:50;9.07;94.55
61641;HTU21D;62201;49.966;8.342;2022-09-29T08:59:15;9.11;91.24
61641;HTU21D;62201;49.966;8.342;2022-09-29T09:04:41;9.25;91.09
61641;HTU21D;62201;49.966;8.342;2022-09-29T09:07:19;9.25;91.95
61641;HTU21D;62201;49.966;8.342;2022-09-29T09:10:22;9.26;92.86
61641;HTU21D;62201;49.966;8.342;2022-09-29T09:13:00;9.33;91.94
61641;HTU21D;62201;49.966;8.342;2022-09-29T09:15:30;9.27;91.77
61641;HTU21D;62201;49.966;8.342;2022-09-29T09:20:55;9.35;91.55
61641;HTU21D;62201;49.966;8.342;2022-09-29T09:23:41;9.42;91.24
61641;HTU21D;62201;49.966;8.342;2022-09-29T09:26:08;9.55;91.62
61641;HTU21D;62201;49.966;8.342;2022-09-29T09:28:47;9.75;90.79
61641;HTU21D;62201;49.966;8.342;2022-09-29T09:31:31;9.60;90.41
61641;HTU21D;62201;49.966;8.342;2022-09-29T09:36:35;9.91;89.50
61641;HTU21D;62201;49.966;8.342;2022-09-29T09:39:25;9.88;89.54
61641;HTU21D;62201;49.966;8.342;2022-09-29T09:41:54;10.18;88.27
61641;HTU21D;62201;49.966;8.342;2022-09-29T09:44:33;10.43;87.18
61641;HTU21D;62201;49.966;8.342;2022-09-29T09:49:44;10.71;85.82
61641;HTU21D;62201;49.966;8.342;2022-09-29T09:52:13;10.65;86.62
61641;HTU21D;62201;49.966;8.342;2022-09-29T09:54:52;10.75;84.33
61641;HTU21D;62201;49.966;8.342;2022-09-29T10:00:19;10.37;86.09
61641;HTU21D;62201;49.966;8.342;2022-09-29T10:02:48;10.55;85.87
61641;HTU21D;62201;49.966;8.342;2022-09-29T10:05:19;10.59;84.03
61641;HTU21D;62201;49.966;8.342;2022-09-29T10:07:46;10.82;85.00
61641;HTU21D;62201;49.966;8.342;2022-09-29T10:10:19;11.05;82.41
61641;HTU21D;62201;49.966;8.342;2022-09-29T10:12:46;11.23;82.60
61641;HTU21D;62201;49.966;8.342;2022-09-29T10:15:17;10.96;84.23
61641;HTU21D;62201;49.966;8.342;2022-09-29T10:17:49;10.89;83.94
61641;HTU21D;62201;49.966;8.342;2022-09-29T10:20:31;11.18;84.06
61641;HTU21D;62201;49.966;8.342;2022-09-29T10:23:25;11.57;81.28
61641;HTU21D;62201;49.966;8.342;2022-09-29T10:26:15;11.63;81.43
61641;HTU21D;62201;49.966;8.342;2022-09-29T10:28:47;11.56;81.23
61641;HTU21D;62201;49.966;8.342;2022-09-29T10:31:20;11.53;81.94
61641;HTU21D;62201;49.966;8.342;2022-09-29T10:33:58;11.55;81.19
61641;HTU21D;62201;49.966;8.342;2022-09-29T10:36:33;11.62;81.49
61641;HTU21D;62201;49.966;8.342;2022-09-29T10:39:30;12.10;79.24
61641;HTU21D;62201;49.966;8.342;2022-09-29T10:41:55;12.47;78.27
61641;HTU21D;62201;49.966;8.342;2022-09-29T10:44:21;12.75;78.43
61641;HTU21D;62201;49.966;8.342;2022-09-29T10:46:52;12.88;77.32
61641;HTU21D;62201;49.966;8.342;2022-09-29T10:49:19;13.26;75.92
61641;HTU21D;62201;49.966;8.342;2022-09-29T10:51:59;13.00;75.90
61641;HTU21D;62201;49.966;8.342;2022-09-29T10:54:28;12.93;76.48
61641;HTU21D;62201;49.966;8.342;2022-09-29T10:56:56;13.05;74.57
61641;HTU21D;62201;49.966;8.342;2022-09-29T10:59:23;13.23;75.15
61641;HTU21D;62201;49.966;8.342;2022-09-29T11:01:53;13.75;73.47
61641;HTU21D;62201;49.966;8.342;2022-09-29T11:04:26;14.10;72.36
61641;HTU21D;62201;49.966;8.342;2022-09-29T11:06:52;14.63;71.60
61641;HTU21D;62201;49.966;8.342;2022-09-29T11:16:54;14.18;70.20
61641;HTU21D;62201;49.966;8.342;2022-09-29T11:19:20;14.20;71.45
61641;HTU21D;62201;49.966;8.342;2022-09-29T11:22:17;13.81;71.70
61641;HTU21D;62201;49.966;8.342;2022-09-29T11:30:21;13.41;71.71
61641;HTU21D;62201;49.966;8.342;2022-09-29T11:43:52;13.41;73.15
61641;HTU21D;62201;49.966;8.342;2022-09-29T11:58:20;13.59;73.64
61641;HTU21D;62201;49.966;8.342;2022-09-29T12:04:16;13.60;73.27
61641;HTU21D;62201;49.966;8.342;2022-09-29T12:07:17;13.60;72.87
61641;HTU21D;62201;49.966;8.342;2022-09-29T12:12:46;13.64;73.22
61641;HTU21D;62201;49.966;8.342;2022-09-29T12:15:38;13.83;72.74
61641;HTU21D;62201;49.966;8.342;2022-09-29T12:18:13;14.05;72.64
61641;HTU21D;62201;49.966;8.342;2022-09-29T12:20:42;14.18;71.86
61641;HTU21D;62201;49.966;8.342;2022-09-29T12:23:16;14.10;72.37
61641;HTU21D;62201;49.966;8.342;2022-09-29T12:25:58;14.22;72.56
61641;HTU21D;62201;49.966;8.342;2022-09-29T12:31:23;14.28;71.68
61641;HTU21D;62201;49.966;8.342;2022-09-29T12:33:53;14.32;72.25
61641;HTU21D;62201;49.966;8.342;2022-09-29T12:36:43;14.34;71.71
61641;HTU21D;62201;49.966;8.342;2022-09-29T12:39:28;14.29;71.42
61641;HTU21D;62201;49.966;8.342;2022-09-29T12:45:05;14.24;71.82
61641;HTU21D;62201;49.966;8.342;2022-09-29T12:47:55;14.30;71.51
61641;HTU21D;62201;49.966;8.342;2022-09-29T12:50:31;14.58;70.72
61641;HTU21D;62201;49.966;8.342;2022-09-29T12:53:03;14.51;69.99
61641;HTU21D;62201;49.966;8.342;2022-09-29T12:56:00;14.25;71.37
61641;HTU21D;62201;49.966;8.342;2022-09-29T12:58:46;14.40;71.19
61641;HTU21D;62201;49.966;8.342;2022-09-29T13:01:41;14.47;71.13
61641;HTU21D;62201;49.966;8.342;2022-09-29T13:04:23;14.41;71.51
61641;HTU21D;62201;49.966;8.342;2022-09-29T13:07:18;14.71;70.74
61641;HTU21D;62201;49.966;8.342;2022-09-29T13:09:59;14.75;70.21
61641;HTU21D;62201;49.966;8.342;2022-09-29T13:15:23;14.52;70.07
61641;HTU21D;62201;49.966;8.342;2022-09-29T13:19:12;15.27;68.04
61641;HTU21D;62201;49.966;8.342;2022-09-29T13:21:33;15.74;66.14
61641;HTU21D;62201;49.966;8.342;2022-09-29T13:24:19;15.47;67.53
61641;HTU21D;62201;49.966;8.342;2022-09-29T13:32:40;15.76;65.60
61641;HTU21D;62201;49.966;8.342;2022-09-29T13:35:12;15.89;65.01
61641;HTU21D;62201;49.966;8.342;2022-09-29T13:37:54;16.04;63.67
61641;HTU21D;62201;49.966;8.342;2022-09-29T13:40:23;16.44;63.43
61641;HTU21D;62201;49.966;8.342;2022-09-29T13:42:50;16.47;62.85
61641;HTU21D;62201;49.966;8.342;2022-09-29T13:47:56;17.39;57.04
61641;HTU21D;62201;49.966;8.342;2022-09-29T14:00:59;15.72;62.08
61641;HTU21D;62201;49.966;8.342;2022-09-29T14:03:32;15.49;63.41
61641;HTU21D;62201;49.966;8.342;2022-09-29T14:06:24;15.42;62.91
61641;HTU21D;62201;49.966;8.342;2022-09-29T14:09:03;15.12;63.92
61641;HTU21D;62201;49.966;8.342;2022-09-29T14:11:34;15.03;64.37
61641;HTU21D;62201;49.966;8.342;2022-09-29T14:17:19;14.93;64.76
61641;HTU21D;62201;49.966;8.342;2022-09-29T14:20:13;15.08;64.19
61641;HTU21D;62201;49.966;8.342;2022-09-29T14:22:49;15.08;64.34
61641;HTU21D;62201;49.966;8.342;2022-09-29T14:27:44;15.15;63.53
61641;HTU21D;62201;49.966;8.342;2022-09-29T14:30:17;14.93;64.43
61641;HTU21D;62201;49.966;8.342;2022-09-29T14:32:55;14.79;65.45
61641;HTU21D;62201;49.966;8.342;2022-09-29T14:35:28;14.75;65.33
61641;HTU21D;62201;49.966;8.342;2022-09-29T14:38:23;14.93;65.64
61641;HTU21D;62201;49.966;8.342;2022-09-29T14:41:28;14.97;66.01
61641;HTU21D;62201;49.966;8.342;2022-09-29T14:44:04;15.10;65.26
61641;HTU21D;62201;49.966;8.342;2022-09-29T14:49:26;14.92;65.37
61641;HTU21D;62201;49.966;8.342;2022-09-29T14:52:47;14.82;66.30
61641;HTU21D;62201;49.966;8.342;2022-09-29T14:58:06;14.77;64.69
61641;HTU21D;62201;49.966;8.342;2022-09-29T15:03:46;14.72;64.57
61641;HTU21D;62201;49.966;8.342;2022-09-29T15:06:20;14.84;65.22
61641;HTU21D;62201;49.966;8.342;2022-09-29T15:09:01;14.83;63.79
61641;HTU21D;62201;49.966;8.342;2022-09-29T15:11:47;14.94;64.30
61641;HTU21D;62201;49.966;8.342;2022-09-29T15:16:48;15.16;62.43
61641;HTU21D;62201;49.966;8.342;2022-09-29T15:19:35;15.41;59.03
61641;HTU21D;62201;49.966;8.342;2022-09-29T15:25:15;15.46;58.57
61641;HTU21D;62201;49.966;8.342;2022-09-29T15:27:48;15.25;62.37
61641;HTU21D;62201;49.966;8.342;2022-09-29T15:30:16;15.18;61.71
61641;HTU21D;62201;49.966;8.342;2022-09-29T15:32:44;15.63;60.76
61641;HTU21D;62201;49.966;8.342;2022-09-29T15:35:12;16.35;59.41
61641;HTU21D;62201;49.966;8.342;2022-09-29T15:40:36;17.65;53.84
61641;HTU21D;62201;49.966;8.342;2022-09-29T15:43:02;18.36;53.22
61641;HTU21D;62201;49.966;8.342;2022-09-29T15:45:28;18.47;51.82
61641;HTU21D;62201;49.966;8.342;2022-09-29T15:48:03;18.94;49.40
61641;HTU21D;62201;49.966;8.342;2022-09-29T15:50:31;19.46;50.66
61641;HTU21D;62201;49.966;8.342;2022-09-29T15:52:58;19.65;49.74
61641;HTU21D;62201;49.966;8.342;2022-09-29T15:55:29;18.58;49.51
61641;HTU21D;62201;49.966;8.342;2022-09-29T15:57:55;18.35;51.78
61641;HTU21D;62201;49.966;8.342;2022-09-29T16:02:59;19.15;49.32
61641;HTU21D;62201;49.966;8.342;2022-09-29T16:05:28;18.96;49.72
61641;HTU21D;62201;49.966;8.342;2022-09-29T16:10:33;18.88;48.92
61641;HTU21D;62201;49.966;8.342;2022-09-29T16:13:06;18.85;48.72
61641;HTU21D;62201;49.966;8.342;2022-09-29T16:15:39;19.18;48.60
61641;HTU21D;62201;49.966;8.342;2022-09-29T16:18:17;19.43;47.79
61641;HTU21D;62201;49.966;8.342;2022-09-29T16:20:45;18.91;49.78
61641;HTU21D;62201;49.966;8.342;2022-09-29T16:26:12;17.04;53.47
61641;HTU21D;62201;49.966;8.342;2022-09-29T16:31:28;15.32;61.00
61641;HTU21D;62201;49.966;8.342;2022-09-29T16:33:57;15.02;60.77
61641;HTU21D;62201;49.966;8.342;2022-09-29T16:36:34;14.79;62.73
61641;HTU21D;62201;49.966;8.342;2022-09-29T16:39:04;14.59;62.56
61641;HTU21D;62201;49.966;8.342;2022-09-29T16:41:36;14.36;63.98
61641;HTU21D;62201;49.966;8.342;2022-09-29T16:46:41;13.94;66.51
61641;HTU21D;62201;49.966;8.342;2022-09-29T16:49:16;13.71;67.11
61641;HTU21D;62201;49.966;8.342;2022-09-29T16:51:44;13.48;67.94
61641;HTU21D;62201;49.966;8.342;2022-09-29T16:54:31;13.21;70.08
61641;HTU21D;62201;49.966;8.342;2022-09-29T16:57:25;12.95;71.37
61641;HTU21D;62201;49.966;8.342;2022-09-29T16:59:54;12.66;74.61
61641;HTU21D;62201;49.966;8.342;2022-09-29T17:02:21;12.42;77.64
61641;HTU21D;62201;49.966;8.342;2022-09-29T17:04:47;12.22;76.22
61641;HTU21D;62201;49.966;8.342;2022-09-29T17:07:15;12.10;78.32
61641;HTU21D;62201;49.966;8.342;2022-09-29T17:09:44;11.90;76.63
61641;HTU21D;62201;49.966;8.342;2022-09-29T17:12:12;11.77;76.58
61641;HTU21D;62201;49.966;8.342;2022-09-29T17:14:37;11.78;75.64
61641;HTU21D;62201;49.966;8.342;2022-09-29T17:17:03;11.81;75.99
61641;HTU21D;62201;49.966;8.342;2022-09-29T17:19:28;11.79;75.41
61641;HTU21D;62201;49.966;8.342;2022-09-29T17:21:54;11.72;76.88
61641;HTU21D;62201;49.966;8.342;2022-09-29T17:24:20;11.62;78.79
61641;HTU21D;62201;49.966;8.342;2022-09-29T17:26:46;11.45;78.65
61641;HTU21D;62201;49.966;8.342;2022-09-29T17:29:31;11.29;79.46
61641;HTU21D;62201;49.966;8.342;2022-09-29T17:31:56;11.16;81.10
61641;HTU21D;62201;49.966;8.342;2022-09-29T17:34:22;11.07;84.24
61641;HTU21D;62201;49.966;8.342;2022-09-29T17:36:54;10.98;82.81
61641;HTU21D;62201;49.966;8.342;2022-09-29T17:39:20;10.95;84.27
61641;HTU21D;62201;49.966;8.342;2022-09-29T17:41:46;10.88;83.30
61641;HTU21D;62201;49.966;8.342;2022-09-29T17:44:13;10.81;84.11
61641;HTU21D;62201;49.966;8.342;2022-09-29T17:46:39;10.75;87.03
61641;HTU21D;62201;49.966;8.342;2022-09-29T17:49:11;10.73;85.76
61641;HTU21D;62201;49.966;8.342;2022-09-29T17:51:36;10.70;86.00
61641;HTU21D;62201;49.966;8.342;2022-09-29T17:54:02;10.67;85.61
61641;HTU21D;62201;49.966;8.342;2022-09-29T17:56:27;10.62;85.80
61641;HTU21D;62201;49.966;8.342;2022-09-29T17:58:57;10.58;86.00
61641;HTU21D;62201;49.966;8.342;2022-09-29T18:01:27;10.56;86.47
61641;HTU21D;62201;49.966;8.342;2022-09-29T18:03:52;10.54;86.85
61641;HTU21D;62201;49.966;8.342;2022-09-29T18:06:20;10.53;87.18
61641;HTU21D;62201;49.966;8.342;2022-09-29T18:08:49;10.55;88.96
61641;HTU21D;62201;49.966;8.342;2022-09-29T18:11:18;10.58;88.87
61641;HTU21D;62201;49.966;8.342;2022-09-29T18:14:01;10.60;88.31
61641;HTU21D;62201;49.966;8.342;2022-09-29T18:16:45;10.56;88.11
61641;HTU21D;62201;49.966;8.342;2022-09-29T18:19:15;10.56;88.48
61641;HTU21D;62201;49.966;8.342;2022-09-29T18:21:41;10.57;90.09